sensor_id;sensor_type;location;lat;lon;timestamp;temperature;humidity
62555;DHT22;48610;52.144;8.624;2023-12-14T00:02:44;5.90;99.90
62555;DHT22;48610;52.144;8.624;2023-12-14T00:05:45;5.90;99.90
62555;DHT22;48610;52.144;8.624;2023-12-14T00:08:46;6.00;99.90
62555;DHT22;48610;52.144;8.624;2023-12-14T00:11:46;6.00;99.90
62555;DHT22;48610;52.144;8.624;2023-12-14T00:14:47;6.00;99.90
62555;DHT22;48610;52.144;8.624;2023-12-14T00:17:47;6.00;99.90
62555;DHT22;48610;52.144;8.624;2023-12-14T00:20:48;6.00;99.90
62555;DHT22;48610;52.144;8.624;2023-12-14T00:23:49;5.90;99.90
62555;DHT22;48610;52.144;8.624;2023-12-14T00:26:49;5.90;99.90
62555;DHT22;48610;52.144;8.624;2023-12-14T00:29:50;5.80;99.90
62555;DHT22;48610;52.144;8.624;2023-12-14T00:32:50;5.80;99.90
62555;DHT22;48610;52.144;8.624;2023-12-14T00:35:51;5.80;99.90
62555;DHT22;48610;52.144;8.624;2023-12-14T00:38:51;5.80;99.90
62555;DHT22;48610;52.144;8.624;2023-12-14T00:41:52;6.00;99.90
62555;DHT22;48610;52.144;8.624;2023-12-14T00:44:52;5.90;99.90
62555;DHT22;48610;52.144;8.624;2023-12-14T00:47:53;5.90;99.90
62555;DHT22;48610;52.144;8.624;2023-12-14T00:50:54;5.70;99.90
62555;DHT22;48610;52.144;8.624;2023-12-14T00:53:54;5.70;99.90
62555;DHT22;48610;52.144;8.624;2023-12-14T00:56:55;5.60;99.90
62555;DHT22;48610;52.144;8.624;2023-12-14T00:59:55;5.60;99.90
62555;DHT22;48610;52.144;8.624;2023-12-14T01:02:56;5.60;99.90
62555;DHT22;48610;52.144;8.624;2023-12-14T01:05:57;5.60;99.90
62555;DHT22;48610;52.144;8.624;2023-12-14T01:08:57;5.60;99.90
62555;DHT22;48610;52.144;8.624;2023-12-14T01:11:58;5.80;99.90
62555;DHT22;48610;52.144;8.624;2023-12-14T01:14:59;5.80;99.90
62555;DHT22;48610;52.144;8.624;2023-12-14T01:17:59;5.70;99.90
62555;DHT22;48610;52.144;8.624;2023-12-14T01:21:00;5.80;99.90
62555;DHT22;48610;52.144;8.624;2023-12-14T01:24:00;5.70;99.90
62555;DHT22;48610;52.144;8.624;2023-12-14T01:27:01;5.60;99.90
62555;DHT22;48610;52.144;8.624;2023-12-14T01:30:01;5.60;99.90
62555;DHT22;48610;52.144;8.624;2023-12-14T01:33:02;5.60;99.90
62555;DHT22;48610;52.144;8.624;2023-12-14T01:36:03;5.50;99.90
62555;DHT22;48610;52.144;8.624;2023-12-14T01:39:03;5.50;99.90
62555;DHT22;48610;52.144;8.624;2023-12-14T01:42:04;5.50;99.90
62555;DHT22;48610;52.144;8.624;2023-12-14T01:45:05;5.30;99.90
62555;DHT22;48610;52.144;8.624;2023-12-14T01:48:06;5.50;99.90
62555;DHT22;48610;52.144;8.624;2023-12-14T01:51:07;5.50;99.90
62555;DHT22;48610;52.144;8.624;2023-12-14T01:54:08;5.60;99.90
62555;DHT22;48610;52.144;8.624;2023-12-14T01:57:08;5.60;99.90
62555;DHT22;48610;52.144;8.624;2023-12-14T02:00:18;5.50;99.90
62555;DHT22;48610;52.144;8.624;2023-12-14T02:03:20;5.40;99.90
62555;DHT22;48610;52.144;8.624;2023-12-14T02:06:21;5.40;99.90
62555;DHT22;48610;52.144;8.624;2023-12-14T02:09:21;5.50;99.90
62555;DHT22;48610;52.144;8.624;2023-12-14T02:12:22;5.60;99.90
62555;DHT22;48610;52.144;8.624;2023-12-14T02:15:22;5.50;99.90
62555;DHT22;48610;52.144;8.624;2023-12-14T02:18:23;5.40;99.90
62555;DHT22;48610;52.144;8.624;2023-12-14T02:21:23;5.30;99.90
62555;DHT22;48610;52.144;8.624;2023-12-14T02:24:24;5.30;99.90
62555;DHT22;48610;52.144;8.624;2023-12-14T02:27:25;5.30;99.90
62555;DHT22;48610;52.144;8.624;2023-12-14T02:30:25;5.30;99.90
62555;DHT22;48610;52.144;8.624;2023-12-14T02:33:26;5.30;99.90
62555;DHT22;48610;52.144;8.624;2023-12-14T02:36:26;5.40;99.90
62555;DHT22;48610;52.144;8.624;2023-12-14T02:39:27;5.60;99.90
62555;DHT22;48610;52.144;8.624;2023-12-14T02:42:27;5.50;99.90
62555;DHT22;48610;52.144;8.624;2023-12-14T02:45:28;5.40;99.90
62555;DHT22;48610;52.144;8.624;2023-12-14T02:48:29;5.30;99.90
62555;DHT22;48610;52.144;8.624;2023-12-14T02:51:29;5.20;99.90
62555;DHT22;48610;52.144;8.624;2023-12-14T02:54:30;5.30;99.90
62555;DHT22;48610;52.144;8.624;2023-12-14T02:57:31;5.40;99.90
62555;DHT22;48610;52.144;8.624;2023-12-14T03:00:31;5.50;99.90
62555;DHT22;48610;52.144;8.624;2023-12-14T03:03:32;5.40;99.90
62555;DHT22;48610;52.144;8.624;2023-12-14T03:06:32;5.20;99.90
62555;DHT22;48610;52.144;8.624;2023-12-14T03:09:33;5.10;99.90
62555;DHT22;48610;52.144;8.624;2023-12-14T03:12:34;5.00;99.90
62555;DHT22;48610;52.144;8.624;2023-12-14T03:15:35;4.90;99.90
62555;DHT22;48610;52.144;8.624;2023-12-14T03:18:35;4.90;99.90
62555;DHT22;48610;52.144;8.624;2023-12-14T03:21:36;4.90;99.90
62555;DHT22;48610;52.144;8.624;2023-12-14T03:24:36;4.90;99.90
62555;DHT22;48610;52.144;8.624;2023-12-14T03:27:37;4.90;99.90
62555;DHT22;48610;52.144;8.624;2023-12-14T03:30:38;4.90;99.90
62555;DHT22;48610;52.144;8.624;2023-12-14T03:33:39;4.90;99.90
62555;DHT22;48610;52.144;8.624;2023-12-14T03:36:40;4.90;99.90
62555;DHT22;48610;52.144;8.624;2023-12-14T03:39:40;4.90;99.90
62555;DHT22;48610;52.144;8.624;2023-12-14T03:42:41;5.00;99.90
62555;DHT22;48610;52.144;8.624;2023-12-14T03:45:41;5.00;99.90
62555;DHT22;48610;52.144;8.624;2023-12-14T03:48:42;5.00;99.90
62555;DHT22;48610;52.144;8.624;2023-12-14T03:51:43;4.90;99.90
62555;DHT22;48610;52.144;8.624;2023-12-14T03:54:43;4.90;99.90
62555;DHT22;48610;52.144;8.624;2023-12-14T03:57:44;4.80;99.90
62555;DHT22;48610;52.144;8.624;2023-12-14T04:00:44;4.90;99.90
62555;DHT22;48610;52.144;8.624;2023-12-14T04:03:45;4.90;99.90
62555;DHT22;48610;52.144;8.624;2023-12-14T04:06:46;4.90;99.90
62555;DHT22;48610;52.144;8.624;2023-12-14T04:09:46;4.90;99.90
62555;DHT22;48610;52.144;8.624;2023-12-14T04:12:47;5.00;99.90
62555;DHT22;48610;52.144;8.624;2023-12-14T04:15:48;5.10;99.90
62555;DHT22;48610;52.144;8.624;2023-12-14T04:18:49;4.90;99.90
62555;DHT22;48610;52.144;8.624;2023-12-14T04:21:50;4.90;99.90
62555;DHT22;48610;52.144;8.624;2023-12-14T04:24:50;4.90;99.90
62555;DHT22;48610;52.144;8.624;2023-12-14T04:27:51;4.90;99.90
62555;DHT22;48610;52.144;8.624;2023-12-14T04:30:52;5.00;99.90
62555;DHT22;48610;52.144;8.624;2023-12-14T04:33:52;5.10;99.90
62555;DHT22;48610;52.144;8.624;2023-12-14T04:36:53;5.10;99.90
62555;DHT22;48610;52.144;8.624;2023-12-14T04:39:58;5.20;99.90
62555;DHT22;48610;52.144;8.624;2023-12-14T04:42:58;5.20;99.90
62555;DHT22;48610;52.144;8.624;2023-12-14T04:45:59;5.30;99.90
62555;DHT22;48610;52.144;8.624;2023-12-14T04:48:59;5.40;99.90
62555;DHT22;48610;52.144;8.624;2023-12-14T04:52:00;5.40;99.90
62555;DHT22;48610;52.144;8.624;2023-12-14T04:55:01;5.50;99.90
62555;DHT22;48610;52.144;8.624;2023-12-14T04:58:01;5.50;99.90
62555;DHT22;48610;52.144;8.624;2023-12-14T05:01:02;5.50;99.90
62555;DHT22;48610;52.144;8.624;2023-12-14T05:04:03;5.40;99.90
62555;DHT22;48610;52.144;8.624;2023-12-14T05:07:03;5.40;99.90
62555;DHT22;48610;52.144;8.624;2023-12-14T05:10:05;5.30;99.90
62555;DHT22;48610;52.144;8.624;2023-12-14T05:13:05;5.40;99.90
62555;DHT22;48610;52.144;8.624;2023-12-14T05:16:12;5.40;99.90
62555;DHT22;48610;52.144;8.624;2023-12-14T05:19:12;5.40;99.90
62555;DHT22;48610;52.144;8.624;2023-12-14T05:22:13;5.50;99.90
62555;DHT22;48610;52.144;8.624;2023-12-14T05:25:14;5.40;99.90
62555;DHT22;48610;52.144;8.624;2023-12-14T05:28:15;5.50;99.90
62555;DHT22;48610;52.144;8.624;2023-12-14T05:31:16;5.40;99.90
62555;DHT22;48610;52.144;8.624;2023-12-14T05:34:18;5.20;99.90
62555;DHT22;48610;52.144;8.624;2023-12-14T05:37:19;5.10;99.90
62555;DHT22;48610;52.144;8.624;2023-12-14T05:40:20;5.10;99.90
62555;DHT22;48610;52.144;8.624;2023-12-14T05:43:20;5.30;99.90
62555;DHT22;48610;52.144;8.624;2023-12-14T05:46:24;5.30;99.90
62555;DHT22;48610;52.144;8.624;2023-12-14T05:49:25;5.30;99.90
62555;DHT22;48610;52.144;8.624;2023-12-14T05:52:25;5.30;99.90
62555;DHT22;48610;52.144;8.624;2023-12-14T05:55:26;5.20;99.90
62555;DHT22;48610;52.144;8.624;2023-12-14T05:58:26;5.20;99.90
62555;DHT22;48610;52.144;8.624;2023-12-14T06:01:27;5.10;99.90
62555;DHT22;48610;52.144;8.624;2023-12-14T06:04:28;5.10;99.90
62555;DHT22;48610;52.144;8.624;2023-12-14T06:07:28;5.10;99.90
62555;DHT22;48610;52.144;8.624;2023-12-14T06:10:29;5.20;99.90
62555;DHT22;48610;52.144;8.624;2023-12-14T06:13:30;5.20;99.90
62555;DHT22;48610;52.144;8.624;2023-12-14T06:16:31;5.30;99.90
62555;DHT22;48610;52.144;8.624;2023-12-14T06:19:32;5.30;99.90
62555;DHT22;48610;52.144;8.624;2023-12-14T06:22:33;5.40;99.90
62555;DHT22;48610;52.144;8.624;2023-12-14T06:25:33;5.40;99.90
62555;DHT22;48610;52.144;8.624;2023-12-14T06:28:34;5.40;99.90
62555;DHT22;48610;52.144;8.624;2023-12-14T06:31:35;5.40;99.90
62555;DHT22;48610;52.144;8.624;2023-12-14T06:34:35;5.40;99.90
62555;DHT22;48610;52.144;8.624;2023-12-14T06:37:36;5.40;99.90
62555;DHT22;48610;52.144;8.624;2023-12-14T06:40:37;5.40;99.90
62555;DHT22;48610;52.144;8.624;2023-12-14T06:43:37;5.30;99.90
62555;DHT22;48610;52.144;8.624;2023-12-14T06:46:41;5.30;99.90
62555;DHT22;48610;52.144;8.624;2023-12-14T06:49:41;5.40;99.90
62555;DHT22;48610;52.144;8.624;2023-12-14T06:52:42;5.40;99.90
62555;DHT22;48610;52.144;8.624;2023-12-14T06:55:42;5.60;99.90
62555;DHT22;48610;52.144;8.624;2023-12-14T06:58:44;5.60;99.90
62555;DHT22;48610;52.144;8.624;2023-12-14T07:01:45;5.50;99.90
62555;DHT22;48610;52.144;8.624;2023-12-14T07:04:46;5.30;99.90
62555;DHT22;48610;52.144;8.624;2023-12-14T07:07:46;5.40;99.90
62555;DHT22;48610;52.144;8.624;2023-12-14T07:10:47;5.50;99.90
62555;DHT22;48610;52.144;8.624;2023-12-14T07:13:47;5.50;99.90
62555;DHT22;48610;52.144;8.624;2023-12-14T07:16:48;5.50;99.90
62555;DHT22;48610;52.144;8.624;2023-12-14T07:19:51;5.60;99.90
62555;DHT22;48610;52.144;8.624;2023-12-14T07:22:52;5.50;99.90
62555;DHT22;48610;52.144;8.624;2023-12-14T07:25:53;5.50;99.90
62555;DHT22;48610;52.144;8.624;2023-12-14T07:28:53;5.50;99.90
62555;DHT22;48610;52.144;8.624;2023-12-14T07:31:54;5.50;99.90
62555;DHT22;48610;52.144;8.624;2023-12-14T07:34:55;5.40;99.90
62555;DHT22;48610;52.144;8.624;2023-12-14T07:37:55;5.20;99.90
62555;DHT22;48610;52.144;8.624;2023-12-14T07:40:56;5.10;99.90
62555;DHT22;48610;52.144;8.624;2023-12-14T07:43:57;5.00;99.90
62555;DHT22;48610;52.144;8.624;2023-12-14T07:47:00;5.00;99.90
62555;DHT22;48610;52.144;8.624;2023-12-14T07:50:01;5.00;99.90
62555;DHT22;48610;52.144;8.624;2023-12-14T07:53:01;5.00;99.90
62555;DHT22;48610;52.144;8.624;2023-12-14T07:56:03;5.20;99.90
62555;DHT22;48610;52.144;8.624;2023-12-14T07:59:04;5.20;99.90
62555;DHT22;48610;52.144;8.624;2023-12-14T08:02:07;5.00;99.90
62555;DHT22;48610;52.144;8.624;2023-12-14T08:05:08;5.00;99.90
62555;DHT22;48610;52.144;8.624;2023-12-14T08:08:09;5.00;99.90
62555;DHT22;48610;52.144;8.624;2023-12-14T08:11:10;4.90;99.90
62555;DHT22;48610;52.144;8.624;2023-12-14T08:14:11;4.80;99.90
62555;DHT22;48610;52.144;8.624;2023-12-14T08:17:12;4.80;99.90
62555;DHT22;48610;52.144;8.624;2023-12-14T08:20:12;4.80;99.90
62555;DHT22;48610;52.144;8.624;2023-12-14T08:23:13;4.80;99.90
62555;DHT22;48610;52.144;8.624;2023-12-14T08:26:14;4.90;99.90
62555;DHT22;48610;52.144;8.624;2023-12-14T08:29:14;5.00;99.90
62555;DHT22;48610;52.144;8.624;2023-12-14T08:32:15;4.90;99.90
62555;DHT22;48610;52.144;8.624;2023-12-14T08:35:16;4.90;99.90
62555;DHT22;48610;52.144;8.624;2023-12-14T08:38:16;4.90;99.90
62555;DHT22;48610;52.144;8.624;2023-12-14T08:41:17;4.90;99.90
62555;DHT22;48610;52.144;8.624;2023-12-14T08:44:18;4.90;99.90
62555;DHT22;48610;52.144;8.624;2023-12-14T08:47:19;5.00;99.90
62555;DHT22;48610;52.144;8.624;2023-12-14T08:50:20;5.00;99.90
62555;DHT22;48610;52.144;8.624;2023-12-14T08:53:20;5.10;99.90
62555;DHT22;48610;52.144;8.624;2023-12-14T08:56:21;5.20;99.90
62555;DHT22;48610;52.144;8.624;2023-12-14T08:59:22;5.30;99.90
62555;DHT22;48610;52.144;8.624;2023-12-14T09:02:23;5.40;99.90
62555;DHT22;48610;52.144;8.624;2023-12-14T09:05:24;5.40;99.90
62555;DHT22;48610;52.144;8.624;2023-12-14T09:08:24;5.40;99.90
62555;DHT22;48610;52.144;8.624;2023-12-14T09:11:25;5.30;99.90
62555;DHT22;48610;52.144;8.624;2023-12-14T09:14:26;5.30;99.90
62555;DHT22;48610;52.144;8.624;2023-12-14T09:17:27;5.30;99.90
62555;DHT22;48610;52.144;8.624;2023-12-14T09:20:33;5.40;99.90
62555;DHT22;48610;52.144;8.624;2023-12-14T09:23:35;5.30;99.90
62555;DHT22;48610;52.144;8.624;2023-12-14T09:26:36;5.40;99.90
62555;DHT22;48610;52.144;8.624;2023-12-14T09:29:37;5.50;99.90
62555;DHT22;48610;52.144;8.624;2023-12-14T09:32:38;5.40;99.90
62555;DHT22;48610;52.144;8.624;2023-12-14T09:35:40;5.30;99.90
62555;DHT22;48610;52.144;8.624;2023-12-14T09:38:41;5.40;99.90
62555;DHT22;48610;52.144;8.624;2023-12-14T09:41:42;5.40;99.90
62555;DHT22;48610;52.144;8.624;2023-12-14T09:44:43;5.50;99.90
62555;DHT22;48610;52.144;8.624;2023-12-14T09:47:44;5.50;99.90
62555;DHT22;48610;52.144;8.624;2023-12-14T09:50:46;5.50;99.90
62555;DHT22;48610;52.144;8.624;2023-12-14T09:53:47;5.50;99.90
62555;DHT22;48610;52.144;8.624;2023-12-14T09:56:49;5.60;99.90
62555;DHT22;48610;52.144;8.624;2023-12-14T09:59:54;5.60;99.90
62555;DHT22;48610;52.144;8.624;2023-12-14T10:02:55;5.60;99.90
62555;DHT22;48610;52.144;8.624;2023-12-14T10:05:57;5.70;99.90
62555;DHT22;48610;52.144;8.624;2023-12-14T10:08:58;5.70;99.90
62555;DHT22;48610;52.144;8.624;2023-12-14T10:12:16;5.70;99.90
62555;DHT22;48610;52.144;8.624;2023-12-14T10:15:17;5.70;99.90
62555;DHT22;48610;52.144;8.624;2023-12-14T10:18:22;5.70;99.90
62555;DHT22;48610;52.144;8.624;2023-12-14T10:21:27;5.70;99.90
62555;DHT22;48610;52.144;8.624;2023-12-14T10:24:32;5.80;99.90
62555;DHT22;48610;52.144;8.624;2023-12-14T10:27:33;5.80;99.90
62555;DHT22;48610;52.144;8.624;2023-12-14T10:30:34;5.80;99.90
62555;DHT22;48610;52.144;8.624;2023-12-14T10:33:35;5.80;99.90
62555;DHT22;48610;52.144;8.624;2023-12-14T10:36:36;5.90;99.90
62555;DHT22;48610;52.144;8.624;2023-12-14T10:39:38;5.90;99.90
62555;DHT22;48610;52.144;8.624;2023-12-14T10:42:43;5.90;99.90
62555;DHT22;48610;52.144;8.624;2023-12-14T10:45:46;5.90;99.90
62555;DHT22;48610;52.144;8.624;2023-12-14T10:48:50;5.90;99.90
62555;DHT22;48610;52.144;8.624;2023-12-14T10:51:55;5.90;99.90
62555;DHT22;48610;52.144;8.624;2023-12-14T10:55:02;5.90;99.90
62555;DHT22;48610;52.144;8.624;2023-12-14T10:58:05;5.80;99.90
62555;DHT22;48610;52.144;8.624;2023-12-14T11:01:06;5.80;99.90
62555;DHT22;48610;52.144;8.624;2023-12-14T11:04:06;5.90;99.90
62555;DHT22;48610;52.144;8.624;2023-12-14T11:07:15;5.90;99.90
62555;DHT22;48610;52.144;8.624;2023-12-14T11:10:21;5.90;99.90
62555;DHT22;48610;52.144;8.624;2023-12-14T11:13:24;5.90;99.90
62555;DHT22;48610;52.144;8.624;2023-12-14T11:16:26;5.90;99.90
62555;DHT22;48610;52.144;8.624;2023-12-14T11:19:29;5.90;99.90
62555;DHT22;48610;52.144;8.624;2023-12-14T11:22:30;5.90;99.90
62555;DHT22;48610;52.144;8.624;2023-12-14T11:25:31;5.90;99.90
62555;DHT22;48610;52.144;8.624;2023-12-14T11:28:34;5.90;99.90
62555;DHT22;48610;52.144;8.624;2023-12-14T11:31:35;6.00;99.90
62555;DHT22;48610;52.144;8.624;2023-12-14T11:34:39;6.10;99.90
62555;DHT22;48610;52.144;8.624;2023-12-14T11:37:40;6.20;99.90
62555;DHT22;48610;52.144;8.624;2023-12-14T11:40:42;6.10;99.90
62555;DHT22;48610;52.144;8.624;2023-12-14T11:43:43;6.00;99.90
62555;DHT22;48610;52.144;8.624;2023-12-14T11:46:44;6.10;99.90
62555;DHT22;48610;52.144;8.624;2023-12-14T11:49:44;6.20;99.90
62555;DHT22;48610;52.144;8.624;2023-12-14T11:52:45;6.20;99.90
62555;DHT22;48610;52.144;8.624;2023-12-14T11:55:46;6.30;99.90
62555;DHT22;48610;52.144;8.624;2023-12-14T11:58:46;6.20;99.90
62555;DHT22;48610;52.144;8.624;2023-12-14T12:04:55;6.30;99.90
62555;DHT22;48610;52.144;8.624;2023-12-14T12:07:57;6.40;99.90
62555;DHT22;48610;52.144;8.624;2023-12-14T12:10:58;6.40;99.90
62555;DHT22;48610;52.144;8.624;2023-12-14T12:13:58;6.40;99.90
62555;DHT22;48610;52.144;8.624;2023-12-14T12:17:00;6.40;99.90
62555;DHT22;48610;52.144;8.624;2023-12-14T12:20:01;6.30;99.90
62555;DHT22;48610;52.144;8.624;2023-12-14T12:23:02;6.30;99.90
62555;DHT22;48610;52.144;8.624;2023-12-14T12:26:04;6.30;99.90
62555;DHT22;48610;52.144;8.624;2023-12-14T12:29:05;6.20;99.90
62555;DHT22;48610;52.144;8.624;2023-12-14T12:32:06;6.30;99.90
62555;DHT22;48610;52.144;8.624;2023-12-14T12:35:07;6.30;99.90
62555;DHT22;48610;52.144;8.624;2023-12-14T12:38:08;6.40;99.90
62555;DHT22;48610;52.144;8.624;2023-12-14T12:41:09;6.40;99.90
62555;DHT22;48610;52.144;8.624;2023-12-14T12:44:09;6.30;99.90
62555;DHT22;48610;52.144;8.624;2023-12-14T12:47:10;6.30;99.90
62555;DHT22;48610;52.144;8.624;2023-12-14T12:50:11;6.30;99.90
62555;DHT22;48610;52.144;8.624;2023-12-14T12:53:11;6.40;99.90
62555;DHT22;48610;52.144;8.624;2023-12-14T12:56:12;6.40;99.90
62555;DHT22;48610;52.144;8.624;2023-12-14T12:59:13;6.30;99.90
62555;DHT22;48610;52.144;8.624;2023-12-14T13:02:15;6.40;99.90
62555;DHT22;48610;52.144;8.624;2023-12-14T13:05:15;6.30;99.90
62555;DHT22;48610;52.144;8.624;2023-12-14T13:08:16;6.40;99.90
62555;DHT22;48610;52.144;8.624;2023-12-14T13:11:18;6.30;99.90
62555;DHT22;48610;52.144;8.624;2023-12-14T13:14:18;6.40;99.90
62555;DHT22;48610;52.144;8.624;2023-12-14T13:17:19;6.40;99.90
62555;DHT22;48610;52.144;8.624;2023-12-14T13:20:19;6.40;99.90
62555;DHT22;48610;52.144;8.624;2023-12-14T13:23:20;6.40;99.90
62555;DHT22;48610;52.144;8.624;2023-12-14T13:26:21;6.50;99.90
62555;DHT22;48610;52.144;8.624;2023-12-14T13:29:22;6.40;99.90
62555;DHT22;48610;52.144;8.624;2023-12-14T13:32:22;6.40;99.90
62555;DHT22;48610;52.144;8.624;2023-12-14T13:35:23;6.40;99.90
62555;DHT22;48610;52.144;8.624;2023-12-14T13:38:25;6.40;99.90
62555;DHT22;48610;52.144;8.624;2023-12-14T13:41:25;6.60;99.90
62555;DHT22;48610;52.144;8.624;2023-12-14T13:44:26;6.30;99.90
62555;DHT22;48610;52.144;8.624;2023-12-14T13:47:27;6.30;99.90
62555;DHT22;48610;52.144;8.624;2023-12-14T13:50:28;6.40;99.90
62555;DHT22;48610;52.144;8.624;2023-12-14T13:53:28;6.40;99.90
62555;DHT22;48610;52.144;8.624;2023-12-14T13:56:29;6.40;99.90
62555;DHT22;48610;52.144;8.624;2023-12-14T13:59:29;6.30;99.90
62555;DHT22;48610;52.144;8.624;2023-12-14T14:02:30;6.20;99.90
62555;DHT22;48610;52.144;8.624;2023-12-14T14:05:31;6.20;99.90
62555;DHT22;48610;52.144;8.624;2023-12-14T14:08:32;6.20;99.90
62555;DHT22;48610;52.144;8.624;2023-12-14T14:11:33;6.20;99.90
62555;DHT22;48610;52.144;8.624;2023-12-14T14:14:35;6.20;99.90
62555;DHT22;48610;52.144;8.624;2023-12-14T14:17:35;6.30;99.90
62555;DHT22;48610;52.144;8.624;2023-12-14T14:20:36;6.20;99.90
62555;DHT22;48610;52.144;8.624;2023-12-14T14:23:37;6.30;99.90
62555;DHT22;48610;52.144;8.624;2023-12-14T14:26:38;6.30;99.90
62555;DHT22;48610;52.144;8.624;2023-12-14T14:29:38;6.30;99.90
62555;DHT22;48610;52.144;8.624;2023-12-14T14:32:39;6.30;99.90
62555;DHT22;48610;52.144;8.624;2023-12-14T14:35:39;6.30;99.90
62555;DHT22;48610;52.144;8.624;2023-12-14T14:38:40;6.40;99.90
62555;DHT22;48610;52.144;8.624;2023-12-14T14:41:40;6.30;99.90
62555;DHT22;48610;52.144;8.624;2023-12-14T14:44:41;6.30;99.90
62555;DHT22;48610;52.144;8.624;2023-12-14T14:47:42;6.30;99.90
62555;DHT22;48610;52.144;8.624;2023-12-14T14:50:43;6.30;99.90
62555;DHT22;48610;52.144;8.624;2023-12-14T14:53:43;6.40;99.90
62555;DHT22;48610;52.144;8.624;2023-12-14T14:56:44;6.30;99.90
62555;DHT22;48610;52.144;8.624;2023-12-14T14:59:45;6.30;99.90
62555;DHT22;48610;52.144;8.624;2023-12-14T15:02:45;6.30;99.90
62555;DHT22;48610;52.144;8.624;2023-12-14T15:05:46;6.20;99.90
62555;DHT22;48610;52.144;8.624;2023-12-14T15:08:46;6.30;99.90
62555;DHT22;48610;52.144;8.624;2023-12-14T15:11:47;6.40;99.90
62555;DHT22;48610;52.144;8.624;2023-12-14T15:14:47;6.40;99.90
62555;DHT22;48610;52.144;8.624;2023-12-14T15:17:48;6.30;99.90
62555;DHT22;48610;52.144;8.624;2023-12-14T15:20:48;6.30;99.90
62555;DHT22;48610;52.144;8.624;2023-12-14T15:23:51;6.30;99.90
62555;DHT22;48610;52.144;8.624;2023-12-14T15:26:52;6.30;99.90
62555;DHT22;48610;52.144;8.624;2023-12-14T15:29:52;6.30;99.90
62555;DHT22;48610;52.144;8.624;2023-12-14T15:32:54;6.30;99.90
62555;DHT22;48610;52.144;8.624;2023-12-14T15:35:55;6.30;99.90
62555;DHT22;48610;52.144;8.624;2023-12-14T15:38:56;6.20;99.90
62555;DHT22;48610;52.144;8.624;2023-12-14T15:41:56;6.30;99.90
62555;DHT22;48610;52.144;8.624;2023-12-14T15:44:57;6.30;99.90
62555;DHT22;48610;52.144;8.624;2023-12-14T15:47:57;6.20;99.90
62555;DHT22;48610;52.144;8.624;2023-12-14T15:50:58;6.20;99.90
62555;DHT22;48610;52.144;8.624;2023-12-14T15:53:59;6.30;99.90
62555;DHT22;48610;52.144;8.624;2023-12-14T15:57:00;6.20;99.90
62555;DHT22;48610;52.144;8.624;2023-12-14T16:00:01;6.30;99.90
62555;DHT22;48610;52.144;8.624;2023-12-14T16:03:01;6.40;99.90
62555;DHT22;48610;52.144;8.624;2023-12-14T16:06:02;6.30;99.90
62555;DHT22;48610;52.144;8.624;2023-12-14T16:09:03;6.40;99.90
62555;DHT22;48610;52.144;8.624;2023-12-14T16:12:04;6.40;99.90
62555;DHT22;48610;52.144;8.624;2023-12-14T16:15:06;6.40;99.90
62555;DHT22;48610;52.144;8.624;2023-12-14T16:18:07;6.40;99.90
62555;DHT22;48610;52.144;8.624;2023-12-14T16:21:10;6.40;99.90
62555;DHT22;48610;52.144;8.624;2023-12-14T16:24:11;6.40;99.90
62555;DHT22;48610;52.144;8.624;2023-12-14T16:27:11;6.40;99.90
62555;DHT22;48610;52.144;8.624;2023-12-14T16:30:13;6.50;99.90
62555;DHT22;48610;52.144;8.624;2023-12-14T16:33:13;6.40;99.90
62555;DHT22;48610;52.144;8.624;2023-12-14T16:36:14;6.40;99.90
62555;DHT22;48610;52.144;8.624;2023-12-14T16:39:15;6.40;99.90
62555;DHT22;48610;52.144;8.624;2023-12-14T16:42:16;6.40;99.90
62555;DHT22;48610;52.144;8.624;2023-12-14T16:45:17;6.40;99.90
62555;DHT22;48610;52.144;8.624;2023-12-14T16:48:17;6.40;99.90
62555;DHT22;48610;52.144;8.624;2023-12-14T16:51:21;6.40;99.90
62555;DHT22;48610;52.144;8.624;2023-12-14T16:54:22;6.30;99.90
62555;DHT22;48610;52.144;8.624;2023-12-14T16:57:22;6.40;99.90
62555;DHT22;48610;52.144;8.624;2023-12-14T17:00:23;6.40;99.90
62555;DHT22;48610;52.144;8.624;2023-12-14T17:03:24;6.30;99.90
62555;DHT22;48610;52.144;8.624;2023-12-14T17:06:24;6.40;99.90
62555;DHT22;48610;52.144;8.624;2023-12-14T17:09:25;6.30;99.90
62555;DHT22;48610;52.144;8.624;2023-12-14T17:12:27;6.30;99.90
62555;DHT22;48610;52.144;8.624;2023-12-14T17:15:28;6.40;99.90
62555;DHT22;48610;52.144;8.624;2023-12-14T17:18:29;6.40;99.90
62555;DHT22;48610;52.144;8.624;2023-12-14T17:21:30;6.40;99.90
62555;DHT22;48610;52.144;8.624;2023-12-14T17:24:30;6.40;99.90
62555;DHT22;48610;52.144;8.624;2023-12-14T17:27:34;6.40;99.90
62555;DHT22;48610;52.144;8.624;2023-12-14T17:30:35;6.40;99.90
62555;DHT22;48610;52.144;8.624;2023-12-14T17:33:36;6.40;99.90
62555;DHT22;48610;52.144;8.624;2023-12-14T17:36:38;6.30;99.90
62555;DHT22;48610;52.144;8.624;2023-12-14T17:39:39;6.20;99.90
62555;DHT22;48610;52.144;8.624;2023-12-14T17:42:41;6.20;99.90
62555;DHT22;48610;52.144;8.624;2023-12-14T17:45:42;6.30;99.90
62555;DHT22;48610;52.144;8.624;2023-12-14T17:48:43;6.30;99.90
62555;DHT22;48610;52.144;8.624;2023-12-14T17:51:44;6.30;99.90
62555;DHT22;48610;52.144;8.624;2023-12-14T17:54:44;6.20;99.90
62555;DHT22;48610;52.144;8.624;2023-12-14T17:57:45;6.30;99.90
62555;DHT22;48610;52.144;8.624;2023-12-14T18:00:45;6.30;99.90
62555;DHT22;48610;52.144;8.624;2023-12-14T18:03:46;6.30;99.90
62555;DHT22;48610;52.144;8.624;2023-12-14T18:06:47;6.30;99.90
62555;DHT22;48610;52.144;8.624;2023-12-14T18:09:47;6.40;99.90
62555;DHT22;48610;52.144;8.624;2023-12-14T18:12:50;6.20;99.90
62555;DHT22;48610;52.144;8.624;2023-12-14T18:15:51;6.20;99.90
62555;DHT22;48610;52.144;8.624;2023-12-14T18:18:52;6.20;99.90
62555;DHT22;48610;52.144;8.624;2023-12-14T18:21:52;6.20;99.90
62555;DHT22;48610;52.144;8.624;2023-12-14T18:24:53;6.20;99.90
62555;DHT22;48610;52.144;8.624;2023-12-14T18:27:54;6.20;99.90
62555;DHT22;48610;52.144;8.624;2023-12-14T18:30:59;6.20;99.90
62555;DHT22;48610;52.144;8.624;2023-12-14T18:34:01;6.10;99.90
62555;DHT22;48610;52.144;8.624;2023-12-14T18:37:02;6.10;99.90
62555;DHT22;48610;52.144;8.624;2023-12-14T18:40:03;6.00;99.90
62555;DHT22;48610;52.144;8.624;2023-12-14T18:43:03;6.10;99.90
62555;DHT22;48610;52.144;8.624;2023-12-14T18:46:05;6.00;99.90
62555;DHT22;48610;52.144;8.624;2023-12-14T18:49:06;6.00;99.90
62555;DHT22;48610;52.144;8.624;2023-12-14T18:52:07;6.00;99.90
62555;DHT22;48610;52.144;8.624;2023-12-14T18:55:08;6.00;99.90
62555;DHT22;48610;52.144;8.624;2023-12-14T18:58:10;6.00;99.90
62555;DHT22;48610;52.144;8.624;2023-12-14T19:01:13;5.90;99.90
62555;DHT22;48610;52.144;8.624;2023-12-14T19:04:14;6.00;99.90
62555;DHT22;48610;52.144;8.624;2023-12-14T19:07:15;6.00;99.90
62555;DHT22;48610;52.144;8.624;2023-12-14T19:10:15;6.10;99.90
62555;DHT22;48610;52.144;8.624;2023-12-14T19:13:16;6.10;99.90
62555;DHT22;48610;52.144;8.624;2023-12-14T19:16:29;6.00;99.90
62555;DHT22;48610;52.144;8.624;2023-12-14T19:19:31;6.10;99.90
62555;DHT22;48610;52.144;8.624;2023-12-14T19:22:31;6.10;99.90
62555;DHT22;48610;52.144;8.624;2023-12-14T19:25:33;6.10;99.90